Time;durP1;ratioP1;P1;durP2;ratioP2;P2;SDS_P1;SDS_P2;PMS_P1;PMS_P2;Temp;Humidity;BMP_temperature;BMP_pressure;BME280_temperature;BME280_humidity;BME280_pressure;Samples;Min_cycle;Max_cycle;Signal;HPM_P1;HPM_P2
2021/04/16 00:00:18;;;;;;;10.40;5.80;;;7.00;99.90;;;;;;4955731;29;20043;-73
2021/04/16 00:02:44;;;;;;;11.13;6.43;;;7.00;99.90;;;;;;4955682;29;20487;-74
2021/04/16 00:05:10;;;;;;;10.50;6.55;;;7.00;99.90;;;;;;4956022;29;20114;-74
2021/04/16 00:07:36;;;;;;;10.23;6.60;;;7.00;99.90;;;;;;4955567;29;20047;-73
2021/04/16 00:10:06;;;;;;;9.48;6.00;;;7.00;99.90;;;;;;4955647;29;20035;-73
2021/04/16 00:12:32;;;;;;;12.98;6.50;;;7.00;99.90;;;;;;4955615;29;20150;-73
2021/04/16 00:14:58;;;;;;;12.02;5.97;;;7.00;99.90;;;;;;4954527;29;20027;-74
2021/04/16 00:17:23;;;;;;;8.35;6.80;;;7.00;99.90;;;;;;4955536;29;20063;-73
2021/04/16 00:19:49;;;;;;;10.90;6.93;;;7.00;99.90;;;;;;4955106;29;20369;-74
2021/04/16 00:22:15;;;;;;;9.77;6.13;;;7.00;99.90;;;;;;4954637;29;20038;-74
2021/04/16 00:24:40;;;;;;;9.77;6.47;;;7.00;99.90;;;;;;4955230;29;20027;-74
2021/04/16 00:27:06;;;;;;;15.43;6.05;;;7.00;99.90;;;;;;4955642;29;20396;-77
2021/04/16 00:29:32;;;;;;;12.48;6.70;;;7.10;99.90;;;;;;4954456;29;20407;-81
2021/04/16 00:31:58;;;;;;;10.68;6.07;;;7.00;99.90;;;;;;4953493;29;20043;-76
2021/04/16 00:34:26;;;;;;;9.55;6.70;;;7.00;99.90;;;;;;4958353;28;20042;-77
2021/04/16 00:36:53;;;;;;;10.68;6.15;;;7.00;99.90;;;;;;4952845;29;20510;-75
2021/04/16 00:39:21;;;;;;;13.00;6.95;;;7.00;99.90;;;;;;4958025;28;20062;-76
2021/04/16 00:41:48;;;;;;;9.70;6.95;;;7.00;99.90;;;;;;4963491;28;20062;-76
2021/04/16 00:44:14;;;;;;;11.18;6.80;;;7.00;99.90;;;;;;4953087;29;20478;-76
2021/04/16 00:46:48;;;;;;;10.85;6.45;;;7.00;99.90;;;;;;4954485;29;20480;-75
2021/04/16 00:49:21;;;;;;;11.40;6.40;;;7.00;99.90;;;;;;4954796;29;20035;-74
2021/04/16 00:51:51;;;;;;;9.50;6.63;;;7.00;99.90;;;;;;4954617;29;20452;-75
2021/04/16 00:54:27;;;;;;;11.43;6.80;;;6.90;99.90;;;;;;4954985;29;20024;-76
2021/04/16 00:56:54;;;;;;;14.88;8.00;;;6.90;99.90;;;;;;4954853;29;20150;-70
2021/04/16 00:59:27;;;;;;;11.70;6.97;;;7.00;99.90;;;;;;4960046;28;20039;-76
2021/04/16 01:01:53;;;;;;;9.85;6.13;;;7.00;99.90;;;;;;4956288;28;20068;-75
2021/04/16 01:04:19;;;;;;;10.30;6.57;;;7.00;99.90;;;;;;4963063;28;20058;-76
2021/04/16 01:06:44;;;;;;;10.00;6.28;;;7.00;99.90;;;;;;4959145;28;20082;-75
2021/04/16 01:09:10;;;;;;;19.65;6.18;;;7.00;99.90;;;;;;4959113;28;20043;-76
2021/04/16 01:11:37;;;;;;;11.02;6.00;;;7.10;99.90;;;;;;4961507;28;20043;-75
2021/04/16 01:14:03;;;;;;;10.02;6.20;;;7.10;99.90;;;;;;4954255;29;20036;-77
2021/04/16 01:16:32;;;;;;;11.50;6.65;;;7.10;99.90;;;;;;4954547;29;20090;-72
2021/04/16 01:19:01;;;;;;;11.13;6.38;;;7.20;99.90;;;;;;4956998;28;20047;-76
2021/04/16 01:21:43;;;;;;;13.23;6.03;;;7.20;99.90;;;;;;4956012;28;20495;-77
2021/04/16 01:24:41;;;;;;;9.20;5.10;;;7.30;99.90;;;;;;4954231;29;20484;-80
2021/04/16 01:27:12;;;;;;;8.38;5.60;;;7.40;99.90;;;;;;4951346;29;20043;-77
2021/04/16 01:29:44;;;;;;;7.88;5.50;;;7.50;99.90;;;;;;4954109;29;20043;-75
2021/04/16 01:32:13;;;;;;;8.98;5.90;;;7.50;99.90;;;;;;4954100;29;20547;-75
2021/04/16 01:34:39;;;;;;;9.40;5.60;;;7.60;99.90;;;;;;4959058;28;20127;-77
2021/04/16 01:37:05;;;;;;;8.55;4.97;;;7.60;99.90;;;;;;4954191;28;20039;-74
2021/04/16 01:39:32;;;;;;;9.27;5.82;;;7.60;99.90;;;;;;4963308;28;20031;-78
2021/04/16 01:41:58;;;;;;;15.77;5.85;;;7.60;99.90;;;;;;4964126;28;20071;-71
2021/04/16 01:44:27;;;;;;;9.88;5.78;;;7.60;99.90;;;;;;4962986;28;20564;-79
2021/04/16 01:46:59;;;;;;;9.98;5.20;;;7.50;99.90;;;;;;4954381;29;20058;-78
2021/04/16 01:49:30;;;;;;;8.68;5.13;;;7.50;99.90;;;;;;4954147;29;20488;-78
2021/04/16 01:51:57;;;;;;;7.57;5.18;;;7.60;99.90;;;;;;4953400;29;20031;-78
2021/04/16 01:54:31;;;;;;;9.93;5.57;;;7.50;99.90;;;;;;4953504;29;20081;-77
2021/04/16 01:57:05;;;;;;;9.15;5.28;;;7.60;99.90;;;;;;4953641;29;20031;-75
2021/04/16 01:59:34;;;;;;;11.65;4.95;;;7.60;99.90;;;;;;4955840;28;20027;-76
2021/04/16 02:02:01;;;;;;;9.95;5.00;;;7.60;99.90;;;;;;4959487;28;20393;-78
2021/04/16 02:04:26;;;;;;;12.35;5.68;;;7.60;99.90;;;;;;4953228;29;20106;-76
2021/04/16 02:06:52;;;;;;;10.48;5.32;;;7.60;99.90;;;;;;4953186;29;20110;-77
2021/04/16 02:09:27;;;;;;;7.72;5.10;;;7.60;99.90;;;;;;4953237;29;20038;-77
2021/04/16 02:11:53;;;;;;;13.88;5.07;;;7.60;99.90;;;;;;4953217;28;20054;-76
2021/04/16 02:14:21;;;;;;;18.00;5.85;;;7.50;99.90;;;;;;4952927;29;20047;-77
2021/04/16 02:16:50;;;;;;;7.78;5.13;;;7.50;99.90;;;;;;4953456;29;20039;-73
2021/04/16 02:19:15;;;;;;;9.85;5.07;;;7.50;99.90;;;;;;4953267;29;20126;-75
2021/04/16 02:21:42;;;;;;;9.88;5.47;;;7.50;99.90;;;;;;4953078;29;20122;-76
2021/04/16 02:24:09;;;;;;;12.48;6.53;;;7.50;99.90;;;;;;4953164;29;20051;-77
2021/04/16 02:26:35;;;;;;;20.50;5.63;;;7.50;99.90;;;;;;4952928;29;20023;-75
2021/04/16 02:29:02;;;;;;;13.45;5.25;;;7.50;99.90;;;;;;4953588;28;20035;-72
2021/04/16 02:31:28;;;;;;;7.13;4.93;;;7.50;99.90;;;;;;4959298;28;20039;-78
2021/04/16 02:33:53;;;;;;;7.15;4.80;;;7.50;99.90;;;;;;4953011;29;20423;-78
2021/04/16 02:36:19;;;;;;;11.02;5.20;;;7.50;99.90;;;;;;4953212;29;20031;-77
2021/04/16 02:38:45;;;;;;;12.07;4.93;;;7.50;99.90;;;;;;4952937;29;20063;-76
2021/04/16 02:41:11;;;;;;;5.35;4.55;;;7.50;99.90;;;;;;4959111;28;20146;-77
2021/04/16 02:43:36;;;;;;;7.38;4.85;;;7.50;99.90;;;;;;4953695;28;20106;-78
2021/04/16 02:46:03;;;;;;;6.93;5.05;;;7.40;99.90;;;;;;4953002;29;20091;-77
2021/04/16 02:48:28;;;;;;;8.50;4.95;;;7.40;99.90;;;;;;4952973;29;20043;-78
2021/04/16 02:50:54;;;;;;;7.72;4.75;;;7.40;99.90;;;;;;4952983;29;20400;-76
2021/04/16 02:53:20;;;;;;;8.88;4.80;;;7.40;99.90;;;;;;4953205;29;20573;-79
2021/04/16 02:55:46;;;;;;;7.18;4.70;;;7.40;99.90;;;;;;4952964;29;20161;-76
2021/04/16 02:58:12;;;;;;;9.13;4.63;;;7.40;99.90;;;;;;4952867;29;20117;-78
2021/04/16 03:00:37;;;;;;;6.22;4.78;;;7.40;99.90;;;;;;4956249;28;20550;-79
2021/04/16 03:03:03;;;;;;;14.05;5.18;;;7.40;99.90;;;;;;4954290;28;20042;-78
2021/04/16 03:05:29;;;;;;;13.65;5.32;;;7.40;99.90;;;;;;4952506;29;20059;-77
2021/04/16 03:07:56;;;;;;;18.30;5.60;;;7.40;99.90;;;;;;4952909;29;20538;-76
2021/04/16 03:10:25;;;;;;;10.43;5.30;;;7.40;99.90;;;;;;4953078;29;20051;-79
2021/04/16 03:12:50;;;;;;;8.27;4.80;;;7.40;99.90;;;;;;4953277;29;20480;-75
2021/04/16 03:15:16;;;;;;;14.00;6.03;;;7.40;99.90;;;;;;4952914;29;20086;-81
2021/04/16 03:17:42;;;;;;;11.15;4.82;;;7.30;99.90;;;;;;4952554;29;20488;-81
2021/04/16 03:20:09;;;;;;;8.48;5.22;;;7.30;99.90;;;;;;4952464;29;20131;-82
2021/04/16 03:22:35;;;;;;;8.00;5.07;;;7.30;99.90;;;;;;4960140;28;20039;-77
2021/04/16 03:25:01;;;;;;;12.52;5.32;;;7.20;99.90;;;;;;4955400;28;20035;-83
2021/04/16 03:27:27;;;;;;;17.60;5.25;;;7.20;99.90;;;;;;4954914;29;20031;-79
2021/04/16 03:29:52;;;;;;;14.68;5.82;;;7.20;99.90;;;;;;4956239;29;20050;-85
2021/04/16 03:32:18;;;;;;;10.77;5.50;;;7.10;99.90;;;;;;4956628;29;20047;-81
2021/04/16 03:34:44;;;;;;;5.30;4.63;;;7.10;99.90;;;;;;4956014;29;20032;-83
2021/04/16 03:37:09;;;;;;;8.80;4.70;;;7.10;99.90;;;;;;4956270;29;20384;-80
2021/04/16 03:39:35;;;;;;;8.88;5.20;;;7.00;99.90;;;;;;4956512;29;20067;-84
2021/04/16 03:42:02;;;;;;;9.20;5.43;;;7.00;99.90;;;;;;4959750;28;20031;-80
2021/04/16 03:44:27;;;;;;;11.00;5.10;;;7.00;99.90;;;;;;4956296;29;20507;-80
2021/04/16 03:46:53;;;;;;;19.75;6.05;;;7.00;99.90;;;;;;4956125;29;20087;-80
2021/04/16 03:49:19;;;;;;;7.97;5.20;;;7.00;99.90;;;;;;4956374;29;20027;-83
2021/04/16 03:51:59;;;;;;;13.50;5.57;;;6.90;99.90;;;;;;4955568;29;20039;-83
2021/04/16 03:54:28;;;;;;;12.18;5.15;;;6.90;99.90;;;;;;4957899;28;20027;-82
2021/04/16 03:56:54;;;;;;;7.53;5.70;;;6.90;99.90;;;;;;4956605;28;20543;-87
2021/04/16 03:59:22;;;;;;;7.97;5.30;;;6.90;99.90;;;;;;4955960;29;20154;-81
2021/04/16 04:01:48;;;;;;;8.68;5.32;;;6.80;99.90;;;;;;4961146;28;20039;-77
2021/04/16 04:04:14;;;;;;;11.13;5.72;;;6.80;99.90;;;;;;4947969;29;20071;-75
2021/04/16 04:06:39;;;;;;;9.52;5.13;;;6.80;99.90;;;;;;4955898;29;20049;-80
2021/04/16 04:09:06;;;;;;;12.40;6.07;;;6.80;99.90;;;;;;4955853;29;20413;-80
2021/04/16 04:11:32;;;;;;;15.02;5.95;;;6.80;99.90;;;;;;4955539;29;20460;-83
2021/04/16 04:14:00;;;;;;;8.18;5.38;;;6.80;99.90;;;;;;4955777;29;20015;-82
2021/04/16 04:16:27;;;;;;;8.80;5.40;;;6.80;99.90;;;;;;4956116;29;20035;-84
2021/04/16 04:18:52;;;;;;;6.68;5.20;;;6.80;99.90;;;;;;4955359;29;20095;-83
2021/04/16 04:21:18;;;;;;;10.45;5.60;;;6.80;99.90;;;;;;4956535;28;20031;-80
2021/04/16 04:23:44;;;;;;;12.43;5.35;;;6.80;99.90;;;;;;4958849;28;20038;-82
2021/04/16 04:26:10;;;;;;;11.68;5.15;;;6.80;99.90;;;;;;4955360;29;20035;-90
2021/04/16 04:28:36;;;;;;;12.88;6.13;;;6.90;99.90;;;;;;4955715;29;20027;-81
2021/04/16 04:31:02;;;;;;;14.68;5.35;;;7.00;99.90;;;;;;4956068;28;20055;-83
2021/04/16 04:33:28;;;;;;;22.35;5.70;;;7.00;99.90;;;;;;4955905;28;20096;-83
2021/04/16 04:35:54;;;;;;;7.70;4.70;;;7.10;99.90;;;;;;4954269;28;20038;-84
2021/04/16 04:38:20;;;;;;;11.27;5.65;;;7.20;99.90;;;;;;4955316;29;20035;-79
2021/04/16 04:40:46;;;;;;;9.70;5.38;;;7.10;99.90;;;;;;4955114;29;20121;-82
2021/04/16 04:43:12;;;;;;;14.35;5.72;;;7.20;99.90;;;;;;4954298;28;20094;-81
2021/04/16 04:45:38;;;;;;;8.07;5.47;;;7.30;99.90;;;;;;4956270;28;20132;-80
2021/04/16 04:48:04;;;;;;;8.60;5.50;;;7.30;99.90;;;;;;4960898;28;20491;-81
2021/04/16 04:50:30;;;;;;;12.32;5.55;;;7.60;99.90;;;;;;4954520;28;20407;-78
2021/04/16 04:52:57;;;;;;;11.00;6.00;;;8.20;99.90;;;;;;4960845;28;20031;-75
2021/04/16 04:55:33;;;;;;;10.27;5.25;;;8.80;99.90;;;;;;4958069;28;20037;-82
2021/04/16 04:57:59;;;;;;;17.90;5.55;;;9.30;99.90;;;;;;4960280;28;20027;-80
2021/04/16 05:00:26;;;;;;;11.98;5.35;;;9.80;99.20;;;;;;4961710;28;20035;-83
2021/04/16 05:02:52;;;;;;;8.65;5.25;;;10.20;98.60;;;;;;4962473;28;20046;-78
2021/04/16 05:05:19;;;;;;;8.85;5.03;;;10.70;97.40;;;;;;4961438;28;20126;-80
2021/04/16 05:07:44;;;;;;;16.15;5.05;;;11.10;96.70;;;;;;4955204;28;20102;-83
2021/04/16 05:10:11;;;;;;;8.80;4.43;;;11.70;95.60;;;;;;4960463;28;20122;-84
2021/04/16 05:12:37;;;;;;;8.15;3.92;;;12.20;94.40;;;;;;4953930;29;20159;-78
2021/04/16 05:15:05;;;;;;;8.27;4.70;;;12.50;93.50;;;;;;4954313;29;20035;-82
2021/04/16 05:17:31;;;;;;;12.10;4.65;;;12.80;92.30;;;;;;4953917;29;20046;-79
2021/04/16 05:19:56;;;;;;;6.80;4.95;;;13.00;91.70;;;;;;4954341;29;20031;-82
2021/04/16 05:22:22;;;;;;;8.80;4.90;;;13.00;91.00;;;;;;4958888;28;20030;-81
2021/04/16 05:24:48;;;;;;;9.75;4.70;;;13.30;90.60;;;;;;4962078;28;20035;-82
2021/04/16 05:27:16;;;;;;;10.18;4.82;;;13.40;89.20;;;;;;4953807;29;20066;-77
2021/04/16 05:29:42;;;;;;;9.98;4.55;;;13.60;88.70;;;;;;4953996;29;20416;-82
2021/04/16 05:32:08;;;;;;;12.35;6.18;;;13.90;87.20;;;;;;4956739;28;20039;-75
2021/04/16 05:34:34;;;;;;;16.20;5.13;;;14.00;85.90;;;;;;4963005;28;20043;-79
2021/04/16 05:37:00;;;;;;;8.38;4.65;;;14.40;85.70;;;;;;4959731;28;20039;-77
2021/04/16 05:39:26;;;;;;;20.05;5.15;;;15.00;82.60;;;;;;4953611;29;20070;-77
2021/04/16 05:41:51;;;;;;;11.13;4.68;;;15.30;81.60;;;;;;4953208;29;20035;-75
2021/04/16 05:44:17;;;;;;;9.27;4.55;;;15.90;80.00;;;;;;4955549;28;20027;-79
2021/04/16 05:46:43;;;;;;;12.07;4.80;;;16.50;77.40;;;;;;4955120;28;20142;-81
2021/04/16 05:49:09;;;;;;;9.63;4.50;;;16.60;76.30;;;;;;4953211;29;20117;-77
2021/04/16 05:51:36;;;;;;;8.25;5.10;;;16.80;74.60;;;;;;4952735;29;20039;-78
2021/04/16 05:54:03;;;;;;;7.65;4.00;;;17.10;73.60;;;;;;4953005;29;20055;-78
2021/04/16 05:56:28;;;;;;;10.93;4.05;;;17.00;72.50;;;;;;4954060;29;20113;-78
2021/04/16 05:58:54;;;;;;;9.80;4.75;;;17.10;72.30;;;;;;4955543;28;20503;-78
2021/04/16 06:01:19;;;;;;;6.80;4.03;;;17.90;71.20;;;;;;4942108;28;21717;-78
2021/04/16 06:03:47;;;;;;;8.02;5.90;;;18.10;68.90;;;;;;4945552;28;20472;-78
2021/04/16 06:06:13;;;;;;;10.90;4.53;;;18.40;68.50;;;;;;4953143;28;20027;-79
2021/04/16 06:08:40;;;;;;;10.10;5.03;;;18.60;67.20;;;;;;4961115;28;20058;-79
2021/04/16 06:11:06;;;;;;;9.30;5.00;;;19.00;66.20;;;;;;4953283;29;20053;-79
2021/04/16 06:13:32;;;;;;;10.88;5.35;;;19.30;65.40;;;;;;4953095;28;20407;-79
2021/04/16 06:15:59;;;;;;;9.38;4.05;;;19.30;64.70;;;;;;4954625;28;20039;-79
2021/04/16 06:18:24;;;;;;;9.90;6.70;;;19.30;63.40;;;;;;4953420;28;20488;-79
2021/04/16 06:20:50;;;;;;;12.82;4.30;;;19.50;63.40;;;;;;4952104;29;20031;-79
2021/04/16 06:23:16;;;;;;;8.80;3.92;;;20.20;62.50;;;;;;4952774;28;20551;-78
2021/04/16 06:25:42;;;;;;;9.55;3.92;;;20.30;60.80;;;;;;4954649;28;20027;-79
2021/04/16 06:28:08;;;;;;;8.82;4.10;;;20.70;60.70;;;;;;4954606;28;20114;-79
2021/04/16 06:30:34;;;;;;;11.63;4.00;;;21.40;59.50;;;;;;4949550;28;20106;-80
2021/04/16 06:33:07;;;;;;;5.57;4.00;;;21.00;58.60;;;;;;4957476;28;20465;-77
2021/04/16 06:35:35;;;;;;;15.90;7.20;;;21.00;58.80;;;;;;4953396;28;20039;-78
2021/04/16 06:38:02;;;;;;;18.45;12.98;;;21.50;58.90;;;;;;4957249;28;20028;-79
2021/04/16 06:40:29;;;;;;;10.57;4.90;;;22.90;57.30;;;;;;4935235;29;20046;-79
2021/04/16 06:42:55;;;;;;;17.15;7.95;;;24.10;54.80;;;;;;4948878;29;20041;-79
2021/04/16 06:45:30;;;;;;;37.40;18.73;;;24.20;54.30;;;;;;4951945;29;20019;-78
2021/04/16 06:48:05;;;;;;;11.98;6.95;;;24.30;53.70;;;;;;4950962;28;20424;-78
2021/04/16 06:50:35;;;;;;;8.10;4.28;;;24.70;52.50;;;;;;4949791;28;20058;-79
2021/04/16 06:53:26;;;;;;;7.45;4.38;;;23.90;52.60;;;;;;4957043;28;20110;-79
2021/04/16 06:56:02;;;;;;;14.35;6.78;;;24.60;52.70;;;;;;4952423;28;20095;-79
2021/04/16 06:59:01;;;;;;;12.00;6.80;;;25.40;51.10;;;;;;4952446;28;20032;-80
2021/04/16 07:01:53;;;;;;;18.40;6.57;;;25.10;50.50;;;;;;4945867;28;20035;-78
2021/04/16 07:04:21;;;;;;;22.27;10.35;;;23.90;51.10;;;;;;4938141;29;20491;-78
2021/04/16 07:06:55;;;;;;;11.50;4.38;;;23.90;51.30;;;;;;4964638;28;20114;-78
2021/04/16 07:09:34;;;;;;;6.85;4.30;;;24.50;50.90;;;;;;4934077;28;20058;-79
2021/04/16 07:12:11;;;;;;;7.70;4.28;;;25.20;50.60;;;;;;4950669;28;20051;-79
2021/04/16 07:14:45;;;;;;;11.60;5.18;;;25.20;49.50;;;;;;4952771;28;20039;-78
2021/04/16 07:17:14;;;;;;;17.75;10.57;;;25.70;49.70;;;;;;4964238;28;20055;-79
2021/04/16 07:19:40;;;;;;;22.88;11.27;;;26.40;49.10;;;;;;4958114;28;20541;-79
2021/04/16 07:22:28;;;;;;;13.73;5.15;;;27.20;48.00;;;;;;4964393;28;20034;-79
2021/04/16 07:24:54;;;;;;;6.10;3.97;;;26.60;47.50;;;;;;4957765;28;20043;-79
2021/04/16 07:27:21;;;;;;;8.20;4.70;;;26.40;46.90;;;;;;4965464;28;20031;-78
2021/04/16 07:29:53;;;;;;;11.02;4.60;;;26.20;47.30;;;;;;4956390;29;20477;-79
2021/04/16 07:32:25;;;;;;;15.10;4.47;;;26.10;47.80;;;;;;4942615;29;20407;-79
2021/04/16 07:34:51;;;;;;;11.25;3.97;;;25.60;47.70;;;;;;4957007;28;20458;-79
2021/04/16 07:37:23;;;;;;;10.80;4.22;;;25.40;47.20;;;;;;4957592;28;20169;-79
2021/04/16 07:40:04;;;;;;;10.90;4.00;;;25.40;47.60;;;;;;4957535;28;20031;-79
2021/04/16 07:42:43;;;;;;;13.43;4.38;;;26.00;47.10;;;;;;4948596;28;20035;-79
2021/04/16 07:45:44;;;;;;;10.68;4.25;;;26.70;46.80;;;;;;4958334;28;20031;-78
2021/04/16 07:48:36;;;;;;;5.10;3.05;;;28.10;46.20;;;;;;4934297;29;20023;-78
2021/04/16 07:51:10;;;;;;;13.32;4.20;;;28.60;45.30;;;;;;4957884;28;20058;-78
2021/04/16 07:53:45;;;;;;;37.55;4.10;;;29.00;44.50;;;;;;4927591;29;20051;-78
2021/04/16 07:56:13;;;;;;;31.33;4.30;;;28.10;44.20;;;;;;4949523;28;20034;-79
2021/04/16 07:58:40;;;;;;;9.23;2.83;;;26.90;45.00;;;;;;4958225;28;20046;-78
2021/04/16 08:01:27;;;;;;;14.88;3.38;;;26.80;45.10;;;;;;4954881;28;20047;-78
2021/04/16 08:03:58;;;;;;;5.57;3.20;;;26.10;45.20;;;;;;4958600;28;20104;-79
2021/04/16 08:06:31;;;;;;;17.70;3.88;;;25.60;45.90;;;;;;4963169;28;20046;-79
2021/04/16 08:08:58;;;;;;;7.90;3.33;;;24.60;46.50;;;;;;4936029;29;20037;-79
2021/04/16 08:11:31;;;;;;;13.52;3.72;;;23.20;48.00;;;;;;4962721;28;20043;-79
2021/04/16 08:14:24;;;;;;;11.18;3.30;;;22.00;49.80;;;;;;4952670;29;20510;-79
2021/04/16 08:17:22;;;;;;;9.80;2.90;;;21.10;50.70;;;;;;4951104;29;20518;-79
2021/04/16 08:19:48;;;;;;;10.18;3.45;;;20.70;51.10;;;;;;4950522;29;20051;-79
2021/04/16 08:22:32;;;;;;;5.10;3.22;;;19.90;51.70;;;;;;4952381;28;20452;-79
2021/04/16 08:25:27;;;;;;;5.32;2.92;;;19.70;52.40;;;;;;4955606;28;20054;-79
2021/04/16 08:28:01;;;;;;;6.25;3.67;;;19.50;52.70;;;;;;4936038;28;20038;-78
2021/04/16 08:30:51;;;;;;;5.93;3.15;;;19.40;51.70;;;;;;4959461;28;20031;-79
2021/04/16 08:33:29;;;;;;;10.40;3.80;;;19.50;52.40;;;;;;4955907;28;20059;-77
2021/04/16 08:36:06;;;;;;;14.82;3.83;;;19.20;52.20;;;;;;4958227;28;20035;-78
2021/04/16 08:39:30;;;;;;;8.88;3.75;;;18.70;53.00;;;;;;4957653;28;20503;-80
2021/04/16 08:42:07;;;;;;;7.22;3.35;;;18.70;54.30;;;;;;4911704;28;20043;-80
2021/04/16 08:44:40;;;;;;;10.02;3.33;;;18.70;53.30;;;;;;4960173;28;20039;-80
2021/04/16 08:47:18;;;;;;;11.82;3.92;;;18.90;53.50;;;;;;4955464;28;20039;-78
2021/04/16 08:49:43;;;;;;;5.43;2.85;;;19.10;52.40;;;;;;4954534;29;20118;-79
2021/04/16 08:52:16;;;;;;;8.23;3.42;;;19.10;53.10;;;;;;4953915;28;20596;-79
2021/04/16 08:54:43;;;;;;;6.13;3.25;;;19.20;53.10;;;;;;4961314;28;20051;-80
2021/04/16 08:57:33;;;;;;;7.30;3.45;;;19.20;53.70;;;;;;4937513;29;20428;-80
2021/04/16 09:00:19;;;;;;;12.45;3.50;;;19.40;53.90;;;;;;4953262;28;20019;-79
2021/04/16 09:02:44;;;;;;;9.75;3.35;;;19.70;52.80;;;;;;4954709;28;20114;-78
2021/04/16 09:05:13;;;;;;;13.27;3.25;;;19.70;52.60;;;;;;4956596;28;20130;-79
2021/04/16 09:07:41;;;;;;;14.75;3.60;;;19.60;53.20;;;;;;4957123;28;20034;-79
2021/04/16 09:10:30;;;;;;;6.55;3.40;;;19.60;53.40;;;;;;4956843;28;20130;-78
2021/04/16 09:13:00;;;;;;;8.88;3.92;;;19.60;54.30;;;;;;4956719;28;20166;-78
2021/04/16 09:15:26;;;;;;;6.68;3.30;;;19.70;54.40;;;;;;4956613;28;20031;-78
2021/04/16 09:17:51;;;;;;;7.60;3.28;;;19.70;54.40;;;;;;4955659;28;20055;-78
2021/04/16 09:20:33;;;;;;;5.15;2.88;;;19.80;54.40;;;;;;4955500;28;20034;-78
2021/04/16 09:23:00;;;;;;;7.68;3.78;;;19.70;54.70;;;;;;4957284;28;20076;-78
2021/04/16 09:25:32;;;;;;;10.02;3.70;;;19.80;55.20;;;;;;4959186;28;20038;-79
2021/04/16 09:28:23;;;;;;;8.98;3.88;;;19.60;55.60;;;;;;4957529;28;20058;-79
2021/04/16 09:30:50;;;;;;;5.88;3.55;;;19.50;55.70;;;;;;4952137;28;20113;-78
2021/04/16 09:33:27;;;;;;;8.90;3.72;;;19.40;55.00;;;;;;4952930;28;20031;-79
2021/04/16 09:36:27;;;;;;;6.68;3.28;;;19.30;55.40;;;;;;4955340;28;20043;-78
2021/04/16 09:38:53;;;;;;;9.55;4.05;;;19.50;55.20;;;;;;4956808;28;20104;-78
2021/04/16 09:41:19;;;;;;;9.45;3.28;;;19.40;55.10;;;;;;4956356;28;20038;-78
2021/04/16 09:43:47;;;;;;;10.02;3.78;;;19.20;54.60;;;;;;4955519;28;20028;-78
2021/04/16 09:46:31;;;;;;;5.60;3.17;;;19.20;54.60;;;;;;4952566;28;20062;-78
2021/04/16 09:49:04;;;;;;;7.47;3.60;;;19.10;54.40;;;;;;4956461;28;20037;-78
2021/04/16 09:51:34;;;;;;;6.60;3.00;;;19.00;55.30;;;;;;4955146;28;20593;-78
2021/04/16 09:54:12;;;;;;;5.05;2.95;;;19.00;54.50;;;;;;4962228;28;20081;-78
2021/04/16 09:57:08;;;;;;;7.18;2.97;;;19.10;55.20;;;;;;4948614;29;20039;-79
2021/04/16 09:59:36;;;;;;;6.88;3.20;;;19.10;54.20;;;;;;4954334;28;20031;-79
2021/04/16 10:02:11;;;;;;;6.25;3.38;;;18.90;55.20;;;;;;4953969;28;20042;-79
2021/04/16 10:04:55;;;;;;;12.30;3.35;;;18.90;55.80;;;;;;4955481;28;20063;-80
2021/04/16 10:07:36;;;;;;;10.50;3.95;;;18.80;55.90;;;;;;4955696;28;20034;-78
2021/04/16 10:10:24;;;;;;;13.75;3.78;;;18.80;57.00;;;;;;4952804;28;20100;-79
2021/04/16 10:13:05;;;;;;;8.65;3.30;;;18.70;56.30;;;;;;4943576;28;20061;-77
2021/04/16 10:15:37;;;;;;;4.50;3.03;;;18.60;56.70;;;;;;4951429;28;20110;-78
2021/04/16 10:18:13;;;;;;;9.95;2.97;;;18.60;56.20;;;;;;4957288;28;20078;-78
2021/04/16 10:20:51;;;;;;;15.32;2.95;;;18.50;56.60;;;;;;4954918;28;20126;-77
2021/04/16 10:23:31;;;;;;;5.55;3.20;;;18.50;58.50;;;;;;4953526;28;20046;-77
2021/04/16 12:38:32;;;;;;;9.80;4.43;;;16.50;65.60;;;;;;4953000;29;20082;-80
2021/04/16 12:40:59;;;;;;;10.23;3.47;;;16.50;66.00;;;;;;4946351;29;20473;-79
2021/04/16 12:43:25;;;;;;;8.20;3.28;;;16.50;66.20;;;;;;4953963;29;20306;-79
2021/04/16 12:45:56;;;;;;;4.88;3.30;;;16.60;67.20;;;;;;4954443;29;20388;-78
2021/04/16 12:48:23;;;;;;;6.47;3.35;;;16.50;66.80;;;;;;4954321;29;20043;-79
2021/04/16 12:50:49;;;;;;;10.70;3.80;;;16.30;69.60;;;;;;4954240;29;20035;-80
2021/04/16 12:53:15;;;;;;;6.95;3.63;;;16.30;71.60;;;;;;4953852;29;20583;-78
2021/04/16 12:55:41;;;;;;;6.75;3.40;;;16.20;71.90;;;;;;4953668;28;20106;-79
2021/04/16 12:58:09;;;;;;;7.95;3.10;;;16.10;71.30;;;;;;4953154;28;20503;-79
2021/04/16 13:00:40;;;;;;;8.45;2.70;;;16.10;71.40;;;;;;4963242;28;20480;-79
2021/04/16 13:03:14;;;;;;;5.15;2.70;;;16.00;72.00;;;;;;4960284;28;20038;-79
2021/04/16 13:05:41;;;;;;;9.60;2.55;;;16.00;73.50;;;;;;4954201;28;20027;-79
2021/04/16 13:08:07;;;;;;;12.85;3.20;;;16.00;73.40;;;;;;4954386;29;20027;-79
2021/04/16 13:10:34;;;;;;;8.05;2.90;;;16.00;75.30;;;;;;4954635;29;20046;-78
2021/04/16 13:13:00;;;;;;;7.20;3.03;;;16.10;75.40;;;;;;4953331;29;20090;-79
2021/04/16 13:15:25;;;;;;;7.78;2.95;;;16.10;74.90;;;;;;4952646;28;20035;-82
2021/04/16 13:18:04;;;;;;;9.32;3.33;;;16.10;72.80;;;;;;4955433;28;20062;-78
2021/04/16 13:20:30;;;;;;;9.70;2.58;;;16.10;73.50;;;;;;4953358;29;20038;-78
2021/04/16 13:22:56;;;;;;;12.30;3.25;;;16.10;74.00;;;;;;4955096;28;20035;-79
2021/04/16 13:25:26;;;;;;;8.85;3.05;;;16.00;73.80;;;;;;4938764;29;20043;-78
2021/04/16 13:27:52;;;;;;;6.10;3.35;;;16.00;74.20;;;;;;4952561;29;20151;-80
2021/04/16 13:30:27;;;;;;;5.55;2.95;;;16.00;75.30;;;;;;4953092;29;20035;-80
2021/04/16 13:32:58;;;;;;;5.38;3.10;;;16.00;74.80;;;;;;4949866;29;20132;-84
2021/04/16 13:35:38;;;;;;;11.90;2.97;;;16.00;75.30;;;;;;4953726;29;20066;-82
2021/04/16 13:38:06;;;;;;;45.72;23.65;;;15.90;75.70;;;;;;4959370;28;20041;-78
2021/04/16 13:40:34;;;;;;;7.65;3.55;;;15.90;75.80;;;;;;4953805;29;20028;-83
2021/04/16 13:43:00;;;;;;;5.70;2.88;;;15.80;75.90;;;;;;4953655;29;20035;-80
2021/04/16 13:45:26;;;;;;;5.00;3.22;;;15.70;76.80;;;;;;4952958;29;20035;-79
2021/04/16 13:47:52;;;;;;;16.20;3.22;;;15.60;75.10;;;;;;4961134;28;20039;-79
2021/04/16 13:50:18;;;;;;;6.10;2.92;;;15.50;75.60;;;;;;4953429;29;20043;-80
2021/04/16 13:52:45;;;;;;;9.85;3.25;;;15.60;74.60;;;;;;4953224;29;20492;-79
2021/04/16 13:55:13;;;;;;;8.50;2.90;;;15.60;74.90;;;;;;4952974;29;20054;-78
2021/04/16 13:57:40;;;;;;;5.07;3.00;;;15.70;76.50;;;;;;4953399;28;20400;-79
2021/04/16 14:00:10;;;;;;;6.60;2.92;;;15.70;75.60;;;;;;4952505;28;20042;-79
2021/04/16 14:02:46;;;;;;;10.60;3.10;;;15.70;76.20;;;;;;4961833;28;20488;-78
2021/04/16 14:05:16;;;;;;;6.10;3.15;;;15.60;77.30;;;;;;4952222;29;20495;-80
2021/04/16 14:07:43;;;;;;;7.30;3.13;;;15.60;78.10;;;;;;4953183;28;20035;-78
2021/04/16 14:10:09;;;;;;;10.23;4.00;;;15.70;77.40;;;;;;4952804;29;20042;-79
2021/04/16 14:12:35;;;;;;;8.27;3.47;;;15.70;76.40;;;;;;4952799;29;20451;-78
2021/04/16 14:15:02;;;;;;;7.28;3.20;;;15.80;74.70;;;;;;4952678;29;20035;-79
2021/04/16 14:17:38;;;;;;;5.95;2.88;;;15.80;75.40;;;;;;4953634;28;20101;-88
2021/04/16 14:20:21;;;;;;;17.13;3.20;;;15.90;77.00;;;;;;4958672;28;20038;-79
2021/04/16 14:22:50;;;;;;;6.00;3.30;;;16.00;77.30;;;;;;4956272;28;20050;-78
2021/04/16 14:25:24;;;;;;;5.15;3.10;;;16.00;77.80;;;;;;4936035;29;20674;-78
2021/04/16 14:27:51;;;;;;;6.05;3.35;;;15.90;78.50;;;;;;4953213;29;20063;-77
2021/04/16 14:30:25;;;;;;;11.32;2.70;;;15.80;79.90;;;;;;4952626;29;20035;-83
2021/04/16 14:32:52;;;;;;;6.15;3.03;;;15.60;81.00;;;;;;4957230;28;20043;-80
2021/04/16 14:35:20;;;;;;;6.82;2.72;;;15.40;81.30;;;;;;4952290;29;20036;-77
2021/04/16 14:37:46;;;;;;;9.25;3.20;;;15.30;79.10;;;;;;4951819;29;20118;-77
2021/04/16 14:40:15;;;;;;;6.60;3.15;;;15.20;80.70;;;;;;4951919;29;20122;-79
2021/04/16 14:42:41;;;;;;;10.27;3.10;;;15.20;82.10;;;;;;4934496;29;20085;-80
2021/04/16 14:45:10;;;;;;;7.10;2.80;;;15.10;83.30;;;;;;4951807;29;20024;-80
2021/04/16 14:47:37;;;;;;;7.30;3.03;;;15.10;84.30;;;;;;4951875;29;20047;-79
2021/04/16 14:50:06;;;;;;;8.75;3.22;;;15.20;84.90;;;;;;4951935;29;20052;-80
2021/04/16 14:52:32;;;;;;;13.13;3.50;;;15.10;84.40;;;;;;4951892;29;20042;-78
2021/04/16 14:54:58;;;;;;;7.10;2.92;;;15.00;84.00;;;;;;4952642;29;20035;-78
2021/04/16 14:57:27;;;;;;;8.25;2.88;;;15.00;84.90;;;;;;4951405;29;20038;-78
2021/04/16 14:59:56;;;;;;;9.73;4.00;;;15.00;86.30;;;;;;4951815;29;20585;-79
2021/04/16 15:02:23;;;;;;;7.00;3.20;;;15.10;86.20;;;;;;4951099;29;20259;-78
2021/04/16 15:04:49;;;;;;;14.55;3.45;;;15.10;86.10;;;;;;4952059;29;20035;-78
2021/04/16 15:07:18;;;;;;;12.80;4.03;;;15.10;86.70;;;;;;4952173;29;20035;-78
2021/04/16 15:09:57;;;;;;;4.95;3.00;;;15.10;84.70;;;;;;4951515;29;20610;-77
2021/04/16 15:12:26;;;;;;;5.55;3.30;;;15.00;83.40;;;;;;4938658;28;20066;-79